Time;durP1;ratioP1;P1;durP2;ratioP2;P2;SDS_P1;SDS_P2;PMS_P1;PMS_P2;Temp;Humidity;BMP_temperature;BMP_pressure;BME280_temperature;BME280_humidity;BME280_pressure;Samples;Min_cycle;Max_cycle;Signal;HPM_P1;HPM_P2
2022/03/01 00:01:34;;;;;;;24.40;12.45;;;;;;;;;;5070830;27;95666;-75
2022/03/01 00:04:00;;;;;;;29.33;12.38;;;;;;;;;;5071551;27;95821;-75
2022/03/01 00:06:26;;;;;;;27.27;12.50;;;;;;;;;;5071502;27;96576;-74
2022/03/01 00:08:54;;;;;;;20.88;12.43;;;;;;;;;;5068673;27;97578;-74
2022/03/01 00:11:21;;;;;;;24.73;12.18;;;;;;;;;;5071297;27;95340;-76
2022/03/01 00:13:47;;;;;;;28.88;13.02;;;;;;;;;;5074358;27;96874;-74
2022/03/01 00:16:14;;;;;;;33.50;13.48;;;;;;;;;;5070939;27;95392;-75
2022/03/01 00:18:40;;;;;;;22.75;12.00;;;;;;;;;;5067115;27;97021;-74
2022/03/01 00:21:07;;;;;;;29.88;13.15;;;;;;;;;;5061523;27;97382;-75
2022/03/01 00:23:33;;;;;;;22.90;12.65;;;;;;;;;;5070931;27;95451;-75
2022/03/01 00:26:00;;;;;;;27.08;13.18;;;;;;;;;;5070327;27;96767;-74
2022/03/01 00:28:26;;;;;;;23.60;12.40;;;;;;;;;;5054515;27;97409;-75
2022/03/01 00:30:52;;;;;;;23.10;12.50;;;;;;;;;;5050294;27;95234;-75
2022/03/01 00:33:19;;;;;;;34.85;14.00;;;;;;;;;;5062883;27;95745;-74
2022/03/01 00:35:45;;;;;;;28.38;13.07;;;;;;;;;;5053856;27;97387;-74
2022/03/01 00:38:11;;;;;;;23.73;13.35;;;;;;;;;;5061869;27;96862;-74
2022/03/01 00:40:38;;;;;;;26.73;12.82;;;;;;;;;;5071052;27;97481;-74
2022/03/01 00:43:04;;;;;;;32.75;12.68;;;;;;;;;;5070869;27;95458;-75
2022/03/01 00:45:31;;;;;;;36.17;12.95;;;;;;;;;;5068393;27;96449;-74
2022/03/01 00:47:57;;;;;;;23.88;12.90;;;;;;;;;;5069904;27;97378;-74
2022/03/01 00:50:24;;;;;;;23.73;12.43;;;;;;;;;;5070996;27;95100;-74
2022/03/01 00:52:50;;;;;;;32.38;13.05;;;;;;;;;;5070248;27;96839;-74
2022/03/01 00:55:16;;;;;;;23.67;13.20;;;;;;;;;;5074149;27;97783;-74
2022/03/01 00:57:42;;;;;;;24.42;12.85;;;;;;;;;;5066566;27;96981;-74
2022/03/01 01:00:09;;;;;;;26.08;12.38;;;;;;;;;;5051483;27;96991;-74
2022/03/01 01:02:36;;;;;;;24.73;13.52;;;;;;;;;;5070902;27;95285;-74
2022/03/01 01:05:02;;;;;;;25.20;13.05;;;;;;;;;;5069854;27;97176;-74
2022/03/01 01:07:29;;;;;;;25.83;13.80;;;;;;;;;;5070014;27;98066;-73
2022/03/01 01:09:55;;;;;;;24.08;14.25;;;;;;;;;;5070401;27;95696;-74
2022/03/01 01:12:21;;;;;;;27.95;13.30;;;;;;;;;;5068713;27;96620;-73
2022/03/01 01:14:48;;;;;;;29.75;14.35;;;;;;;;;;5067863;27;97700;-74
2022/03/01 01:17:14;;;;;;;26.35;13.93;;;;;;;;;;5073016;27;95156;-74
2022/03/01 01:19:41;;;;;;;28.73;13.75;;;;;;;;;;5049454;27;97560;-74
2022/03/01 01:24:54;;;;;;;25.02;12.73;;;;;;;;;;5050471;27;96771;-73
2022/03/01 01:27:21;;;;;;;23.98;13.43;;;;;;;;;;5061717;27;96332;-75
2022/03/01 01:29:47;;;;;;;34.28;13.00;;;;;;;;;;5069952;27;95914;-76
2022/03/01 01:32:14;;;;;;;31.15;12.77;;;;;;;;;;5069956;27;96608;-76
2022/03/01 01:34:40;;;;;;;23.13;13.30;;;;;;;;;;5057954;27;97255;-75
2022/03/01 01:37:07;;;;;;;38.20;13.75;;;;;;;;;;5049422;27;95344;-75
2022/03/01 01:39:33;;;;;;;32.50;13.35;;;;;;;;;;5067810;27;96872;-75
2022/03/01 01:41:59;;;;;;;23.00;13.00;;;;;;;;;;5052620;27;95458;-74
2022/03/01 01:44:28;;;;;;;24.25;13.68;;;;;;;;;;5049766;27;97511;-77
2022/03/01 01:46:54;;;;;;;27.10;13.00;;;;;;;;;;5067317;27;97258;-77
2022/03/01 01:49:23;;;;;;;30.90;13.05;;;;;;;;;;5069088;27;95391;-76
2022/03/01 01:51:49;;;;;;;28.52;13.73;;;;;;;;;;5069515;27;96338;-76
2022/03/01 01:54:16;;;;;;;30.05;13.20;;;;;;;;;;5060395;27;97396;-73
2022/03/01 01:56:43;;;;;;;25.75;13.80;;;;;;;;;;5066408;27;96407;-74
2022/03/01 01:59:09;;;;;;;24.73;13.57;;;;;;;;;;5068766;27;97099;-75
2022/03/01 02:01:35;;;;;;;26.00;13.30;;;;;;;;;;5068836;27;96770;-74
2022/03/01 02:04:02;;;;;;;26.73;14.00;;;;;;;;;;5069330;27;96814;-75
2022/03/01 02:06:29;;;;;;;29.30;14.35;;;;;;;;;;5056973;27;97354;-74
2022/03/01 02:08:55;;;;;;;26.25;13.45;;;;;;;;;;5055848;27;95551;-74
2022/03/01 02:11:21;;;;;;;27.65;13.40;;;;;;;;;;5066705;27;96845;-76
2022/03/01 02:13:48;;;;;;;27.58;12.98;;;;;;;;;;5058599;27;96922;-75
2022/03/01 02:16:14;;;;;;;24.50;13.30;;;;;;;;;;5069031;27;95683;-77
2022/03/01 02:18:40;;;;;;;29.30;14.70;;;;;;;;;;5067844;27;96993;-75
2022/03/01 02:21:07;;;;;;;37.50;14.68;;;;;;;;;;5069451;27;97408;-74
2022/03/01 02:23:35;;;;;;;39.67;13.93;;;;;;;;;;5060847;27;95421;-73
2022/03/01 02:26:02;;;;;;;24.00;13.45;;;;;;;;;;5056377;27;97198;-74
2022/03/01 02:28:29;;;;;;;23.48;12.95;;;;;;;;;;5068792;27;95795;-74
2022/03/01 02:30:56;;;;;;;22.88;12.90;;;;;;;;;;5068991;27;96788;-75
2022/03/01 02:33:22;;;;;;;26.50;13.63;;;;;;;;;;5069181;27;97754;-75
2022/03/01 02:35:48;;;;;;;23.05;12.35;;;;;;;;;;5068900;27;95341;-75
2022/03/01 02:38:15;;;;;;;22.45;13.50;;;;;;;;;;5068710;27;96770;-74
2022/03/01 02:40:41;;;;;;;24.90;14.02;;;;;;;;;;5067679;27;97718;-76
2022/03/01 02:43:10;;;;;;;26.98;13.55;;;;;;;;;;5068663;27;96299;-76
2022/03/01 02:45:36;;;;;;;23.15;13.52;;;;;;;;;;5071997;27;96922;-76
2022/03/01 02:48:03;;;;;;;28.42;14.30;;;;;;;;;;5069583;27;95464;-74
2022/03/01 02:50:29;;;;;;;23.42;13.50;;;;;;;;;;5071641;27;96997;-74
2022/03/01 02:52:55;;;;;;;28.90;13.60;;;;;;;;;;5071909;27;96232;-74
2022/03/01 02:55:22;;;;;;;31.90;13.43;;;;;;;;;;5072785;27;95602;-73
2022/03/01 02:57:48;;;;;;;28.73;13.98;;;;;;;;;;5071352;27;96838;-73
2022/03/01 03:00:14;;;;;;;38.33;13.98;;;;;;;;;;5071024;27;97425;-74
2022/03/01 03:02:42;;;;;;;26.20;13.40;;;;;;;;;;5071393;27;95407;-74
2022/03/01 03:05:09;;;;;;;25.02;13.23;;;;;;;;;;5074815;27;96850;-74
2022/03/01 03:07:35;;;;;;;30.33;14.25;;;;;;;;;;5071934;27;95431;-73
2022/03/01 03:10:02;;;;;;;24.45;14.00;;;;;;;;;;5070810;27;95740;-74
2022/03/01 03:12:29;;;;;;;30.60;14.38;;;;;;;;;;5071771;27;97321;-75
2022/03/01 03:14:55;;;;;;;25.73;14.20;;;;;;;;;;5072310;27;95726;-74
2022/03/01 03:17:22;;;;;;;26.77;14.30;;;;;;;;;;5071609;27;96304;-74
2022/03/01 03:19:48;;;;;;;27.05;13.63;;;;;;;;;;5070747;27;97433;-74
2022/03/01 03:22:15;;;;;;;24.17;13.40;;;;;;;;;;5072229;27;95294;-74
2022/03/01 03:24:41;;;;;;;28.60;14.45;;;;;;;;;;5072528;27;97104;-74
2022/03/01 03:27:07;;;;;;;30.38;13.52;;;;;;;;;;5073661;27;97396;-76
2022/03/01 03:29:34;;;;;;;24.90;13.90;;;;;;;;;;5071927;27;97309;-74
2022/03/01 03:32:00;;;;;;;29.15;14.48;;;;;;;;;;5071605;27;97676;-74
2022/03/01 03:34:26;;;;;;;26.02;13.82;;;;;;;;;;5071591;27;95620;-73
2022/03/01 03:36:53;;;;;;;28.15;14.80;;;;;;;;;;5066116;27;96573;-74
2022/03/01 03:39:19;;;;;;;24.55;13.52;;;;;;;;;;5071473;27;97387;-74
2022/03/01 03:41:46;;;;;;;27.02;13.55;;;;;;;;;;5071312;27;95284;-74
2022/03/01 03:44:12;;;;;;;27.88;14.23;;;;;;;;;;5072132;27;98128;-74
2022/03/01 03:46:39;;;;;;;26.67;14.02;;;;;;;;;;5070249;27;97669;-75
2022/03/01 03:49:06;;;;;;;26.52;14.23;;;;;;;;;;5073687;27;95548;-75
2022/03/01 03:51:32;;;;;;;24.08;13.65;;;;;;;;;;5071905;27;97662;-74
2022/03/01 03:53:59;;;;;;;25.40;14.30;;;;;;;;;;5071171;27;95469;-74
2022/03/01 03:56:25;;;;;;;24.17;13.30;;;;;;;;;;5072034;27;96898;-74
2022/03/01 03:58:52;;;;;;;26.38;14.50;;;;;;;;;;5068093;27;97502;-74
2022/03/01 04:01:19;;;;;;;25.75;12.93;;;;;;;;;;5071160;27;95156;-74
2022/03/01 04:03:45;;;;;;;24.05;12.77;;;;;;;;;;5071732;27;97146;-73
2022/03/01 04:06:12;;;;;;;23.80;12.80;;;;;;;;;;5071650;27;98428;-74
2022/03/01 04:08:38;;;;;;;25.80;13.88;;;;;;;;;;5067566;27;96647;-74
2022/03/01 04:11:05;;;;;;;27.73;14.23;;;;;;;;;;5074350;27;96822;-74
2022/03/01 04:13:32;;;;;;;26.58;14.63;;;;;;;;;;5071526;27;95395;-74
2022/03/01 04:15:59;;;;;;;27.27;13.63;;;;;;;;;;5068911;27;96934;-74
2022/03/01 04:18:26;;;;;;;23.27;12.73;;;;;;;;;;5070523;27;97461;-74
2022/03/01 04:20:52;;;;;;;24.42;13.88;;;;;;;;;;5071461;27;95635;-74
2022/03/01 04:23:18;;;;;;;25.63;14.18;;;;;;;;;;5070968;27;96891;-74
2022/03/01 04:25:45;;;;;;;24.60;13.70;;;;;;;;;;5070520;27;96209;-74
2022/03/01 04:28:12;;;;;;;27.52;14.32;;;;;;;;;;5068903;27;95411;-74
2022/03/01 04:30:38;;;;;;;25.35;12.98;;;;;;;;;;5070873;27;96899;-75
2022/03/01 04:33:04;;;;;;;25.23;14.60;;;;;;;;;;5073722;27;97343;-75
2022/03/01 04:35:31;;;;;;;22.65;12.93;;;;;;;;;;5069538;27;96753;-74
2022/03/01 04:37:57;;;;;;;26.98;13.75;;;;;;;;;;5055630;27;97881;-74
2022/03/01 04:40:23;;;;;;;27.60;14.40;;;;;;;;;;5052180;27;95707;-74
2022/03/01 04:42:50;;;;;;;25.90;14.02;;;;;;;;;;5050303;27;96673;-74
2022/03/01 04:45:16;;;;;;;23.75;13.88;;;;;;;;;;5050371;27;97061;-74
2022/03/01 04:47:43;;;;;;;28.92;13.30;;;;;;;;;;5061312;27;96064;-74
2022/03/01 04:50:10;;;;;;;29.02;13.73;;;;;;;;;;5069834;27;96830;-74
2022/03/01 04:52:36;;;;;;;25.10;13.80;;;;;;;;;;5070694;27;97336;-74
2022/03/01 04:55:03;;;;;;;24.80;13.38;;;;;;;;;;5073997;27;95170;-74
2022/03/01 04:57:29;;;;;;;24.55;13.23;;;;;;;;;;5065924;27;97719;-74
2022/03/01 04:59:55;;;;;;;29.42;13.63;;;;;;;;;;5070171;27;95534;-74
2022/03/01 05:02:22;;;;;;;28.52;14.25;;;;;;;;;;5070923;27;96838;-74
2022/03/01 05:04:48;;;;;;;23.00;13.43;;;;;;;;;;5069642;27;97349;-74
2022/03/01 05:07:18;;;;;;;27.63;13.85;;;;;;;;;;5068932;27;95757;-75
2022/03/01 05:09:44;;;;;;;24.15;13.43;;;;;;;;;;5069597;27;96871;-74
2022/03/01 05:12:10;;;;;;;24.17;13.57;;;;;;;;;;5069670;27;97479;-74
2022/03/01 05:14:36;;;;;;;29.00;13.43;;;;;;;;;;5073946;27;95362;-74
2022/03/01 05:17:03;;;;;;;26.20;13.38;;;;;;;;;;5069372;27;97301;-74
2022/03/01 05:19:29;;;;;;;24.08;12.75;;;;;;;;;;5069538;27;95643;-75
2022/03/01 05:21:55;;;;;;;26.02;13.48;;;;;;;;;;5070369;27;96939;-74
2022/03/01 05:24:22;;;;;;;25.45;14.15;;;;;;;;;;5070164;27;97329;-75
2022/03/01 05:26:50;;;;;;;24.65;13.38;;;;;;;;;;5069692;27;95964;-74
2022/03/01 05:29:16;;;;;;;22.13;12.68;;;;;;;;;;5055336;27;97390;-74
2022/03/01 05:31:42;;;;;;;25.48;12.77;;;;;;;;;;5070207;27;97292;-75
2022/03/01 05:34:09;;;;;;;25.73;12.73;;;;;;;;;;5069225;27;95632;-75
2022/03/01 05:36:35;;;;;;;21.67;12.18;;;;;;;;;;5066214;27;96389;-74
2022/03/01 05:39:02;;;;;;;23.00;12.73;;;;;;;;;;5049348;27;95472;-75
2022/03/01 05:41:28;;;;;;;26.38;12.98;;;;;;;;;;5052972;27;96889;-74
2022/03/01 05:43:55;;;;;;;26.83;13.45;;;;;;;;;;5049342;27;97412;-75
2022/03/01 05:46:26;;;;;;;25.73;12.87;;;;;;;;;;5049569;27;95734;-74
2022/03/01 05:48:54;;;;;;;21.42;11.63;;;;;;;;;;5059661;27;97001;-74
2022/03/01 05:51:20;;;;;;;23.98;13.10;;;;;;;;;;5060688;27;97427;-76
2022/03/01 05:53:47;;;;;;;25.40;12.95;;;;;;;;;;5068860;27;95696;-76
2022/03/01 05:56:13;;;;;;;24.45;13.35;;;;;;;;;;5069617;27;96830;-76
2022/03/01 05:58:39;;;;;;;27.73;13.93;;;;;;;;;;5070960;27;97397;-75
2022/03/01 06:01:06;;;;;;;24.10;13.15;;;;;;;;;;5066328;27;96681;-74
2022/03/01 06:03:35;;;;;;;25.27;12.80;;;;;;;;;;5068665;27;95775;-74
2022/03/01 06:06:01;;;;;;;24.27;13.23;;;;;;;;;;5067395;27;96107;-73
2022/03/01 06:08:28;;;;;;;27.52;12.93;;;;;;;;;;5069293;27;97278;-74
2022/03/01 06:10:55;;;;;;;25.27;12.15;;;;;;;;;;5069212;27;98101;-74
2022/03/01 06:13:21;;;;;;;24.40;12.88;;;;;;;;;;5069452;27;95894;-75
2022/03/01 06:15:48;;;;;;;26.90;13.10;;;;;;;;;;5068906;27;97010;-74
2022/03/01 06:18:15;;;;;;;26.23;12.57;;;;;;;;;;5068974;27;97828;-75
2022/03/01 06:20:42;;;;;;;24.85;12.80;;;;;;;;;;5061615;27;95984;-74
2022/03/01 06:23:09;;;;;;;23.08;12.18;;;;;;;;;;5049292;27;97907;-74
2022/03/01 06:25:36;;;;;;;22.30;12.55;;;;;;;;;;5048644;27;97122;-75
2022/03/01 06:28:03;;;;;;;24.67;13.27;;;;;;;;;;5063622;27;97324;-75
2022/03/01 06:30:29;;;;;;;24.65;13.25;;;;;;;;;;5068382;27;98078;-75
2022/03/01 06:32:56;;;;;;;25.27;12.50;;;;;;;;;;5068814;27;95438;-74
2022/03/01 06:35:22;;;;;;;23.70;13.27;;;;;;;;;;5068265;27;97401;-76
2022/03/01 06:37:51;;;;;;;24.95;13.18;;;;;;;;;;5068355;27;98278;-74
2022/03/01 06:40:18;;;;;;;25.05;13.15;;;;;;;;;;5067749;27;95774;-74
2022/03/01 06:42:47;;;;;;;22.67;13.18;;;;;;;;;;5070898;27;96990;-74
2022/03/01 06:45:14;;;;;;;22.90;13.02;;;;;;;;;;5068848;27;95470;-74
2022/03/01 17:31:06;;;;;;;29.65;17.27;;;;;;;;;;5059345;27;1441658;-76
2022/03/01 17:33:33;;;;;;;44.20;25.80;;;;;;;;;;5093783;27;97967;-75
2022/03/01 17:35:59;;;;;;;39.53;22.33;;;;;;;;;;5092895;27;95818;-74
2022/03/01 17:38:26;;;;;;;45.95;22.05;;;;;;;;;;5104817;27;97103;-74
2022/03/01 17:40:52;;;;;;;38.58;20.05;;;;;;;;;;5087106;27;97357;-74
2022/03/01 17:43:18;;;;;;;35.88;19.58;;;;;;;;;;5100736;27;95458;-74
2022/03/01 17:45:45;;;;;;;47.38;22.30;;;;;;;;;;5085301;27;96718;-74
2022/03/01 17:48:11;;;;;;;46.55;24.88;;;;;;;;;;5091508;27;97991;-74
2022/03/01 17:50:38;;;;;;;34.78;19.80;;;;;;;;;;5105247;27;95382;-74
2022/03/01 17:53:05;;;;;;;37.45;20.45;;;;;;;;;;5076119;27;97941;-73
2022/03/01 17:55:31;;;;;;;36.95;20.55;;;;;;;;;;5100484;27;95353;-74
2022/03/01 17:57:58;;;;;;;35.33;21.35;;;;;;;;;;5099586;27;97406;-75
2022/03/01 18:00:24;;;;;;;45.78;23.27;;;;;;;;;;5105216;27;98077;-73
2022/03/01 18:02:51;;;;;;;38.63;23.02;;;;;;;;;;5085943;27;95366;-73
2022/03/01 18:05:19;;;;;;;47.58;25.17;;;;;;;;;;5104635;27;97041;-75
2022/03/01 18:07:46;;;;;;;47.15;25.52;;;;;;;;;;5093937;27;97544;-73
2022/03/01 18:10:13;;;;;;;39.28;23.45;;;;;;;;;;5094314;27;96495;-75
2022/03/01 18:12:39;;;;;;;42.90;25.58;;;;;;;;;;5104966;27;97417;-74
2022/03/01 18:15:07;;;;;;;41.15;22.13;;;;;;;;;;5098733;27;97213;-74
2022/03/01 18:17:33;;;;;;;106.85;40.83;;;;;;;;;;5089974;27;96158;-74
2022/03/01 18:20:00;;;;;;;52.03;26.35;;;;;;;;;;5085654;27;97804;-74
2022/03/01 18:22:27;;;;;;;38.30;23.05;;;;;;;;;;5077785;27;95541;-74
2022/03/01 18:24:54;;;;;;;40.40;23.75;;;;;;;;;;5098410;27;95972;-74
2022/03/01 18:27:20;;;;;;;40.83;24.50;;;;;;;;;;5089061;27;97147;-74
2022/03/01 18:29:48;;;;;;;46.78;25.20;;;;;;;;;;5100873;27;96427;-74
2022/03/01 18:32:18;;;;;;;51.45;26.33;;;;;;;;;;5090243;27;97488;-73
2022/03/01 18:34:45;;;;;;;50.08;25.60;;;;;;;;;;5105876;27;97964;-73
2022/03/01 18:37:11;;;;;;;46.28;23.05;;;;;;;;;;5095177;27;96783;-74
2022/03/01 18:39:41;;;;;;;42.42;23.98;;;;;;;;;;5100648;27;97278;-74
2022/03/01 18:42:09;;;;;;;42.58;23.65;;;;;;;;;;5087542;27;95987;-73
2022/03/01 18:44:37;;;;;;;101.40;35.95;;;;;;;;;;5072120;27;96755;-74
2022/03/01 18:47:03;;;;;;;69.95;28.63;;;;;;;;;;5088332;27;97298;-74
2022/03/01 18:49:30;;;;;;;51.60;26.90;;;;;;;;;;5091334;27;96292;-74
2022/03/01 18:51:57;;;;;;;55.97;27.25;;;;;;;;;;5089908;27;96797;-75
2022/03/01 18:54:37;;;;;;;45.83;25.77;;;;;;;;;;5087780;27;97031;-74
2022/03/01 18:57:05;;;;;;;59.72;28.45;;;;;;;;;;5091336;27;95737;-75
2022/03/01 18:59:32;;;;;;;41.92;23.83;;;;;;;;;;5068240;27;97997;-74
2022/03/01 19:01:59;;;;;;;44.70;25.38;;;;;;;;;;5079968;27;95789;-73
2022/03/01 19:04:26;;;;;;;54.03;26.70;;;;;;;;;;5080806;27;96121;-75
2022/03/01 19:06:52;;;;;;;125.90;38.17;;;;;;;;;;5057576;27;97568;-75
2022/03/01 19:09:19;;;;;;;44.00;24.65;;;;;;;;;;5073850;27;95223;-75
2022/03/01 19:11:48;;;;;;;84.03;30.98;;;;;;;;;;5088902;27;97439;-75
2022/03/01 19:14:15;;;;;;;54.90;24.42;;;;;;;;;;5089228;27;98096;-73
2022/03/01 19:16:42;;;;;;;58.47;24.33;;;;;;;;;;5088802;27;95468;-73
2022/03/01 19:19:09;;;;;;;58.15;28.02;;;;;;;;;;5090271;27;96399;-74
2022/03/01 19:21:36;;;;;;;87.95;33.10;;;;;;;;;;5088286;27;95852;-75
2022/03/01 19:24:03;;;;;;;77.15;30.92;;;;;;;;;;5089132;27;97476;-75
2022/03/01 19:26:33;;;;;;;93.03;34.95;;;;;;;;;;5074059;27;95703;-75
2022/03/01 19:28:59;;;;;;;101.80;38.10;;;;;;;;;;5070466;27;96760;-75
2022/03/01 19:31:27;;;;;;;46.28;24.15;;;;;;;;;;5069450;27;96173;-73
2022/03/01 19:33:53;;;;;;;43.20;25.23;;;;;;;;;;5077965;27;97785;-74
2022/03/01 19:36:20;;;;;;;46.28;24.65;;;;;;;;;;5089825;27;95310;-73
2022/03/01 19:38:47;;;;;;;49.95;26.10;;;;;;;;;;5061996;27;97406;-77
2022/03/01 19:41:13;;;;;;;49.72;25.55;;;;;;;;;;5090481;27;95634;-76
2022/03/01 19:43:40;;;;;;;49.55;27.77;;;;;;;;;;5075626;27;97327;-74
2022/03/01 19:46:08;;;;;;;56.42;28.55;;;;;;;;;;5087287;27;97691;-73
2022/03/01 19:48:34;;;;;;;47.35;28.38;;;;;;;;;;5088964;27;95790;-75
2022/03/01 19:51:01;;;;;;;57.60;27.73;;;;;;;;;;5088790;27;97197;-75
2022/03/01 19:53:28;;;;;;;43.20;27.02;;;;;;;;;;5087723;27;97155;-74
2022/03/01 19:58:36;;;;;;;49.10;25.70;;;;;;;;;;5082662;27;96041;-75
2022/03/01 20:01:03;;;;;;;50.38;25.52;;;;;;;;;;5059938;27;98781;-75
2022/03/01 20:03:32;;;;;;;47.70;24.45;;;;;;;;;;5063942;27;96210;-75
2022/03/01 20:05:59;;;;;;;40.60;24.75;;;;;;;;;;5045686;27;96370;-74
2022/03/01 20:08:26;;;;;;;50.75;28.13;;;;;;;;;;5062062;27;97941;-75
2022/03/01 20:10:52;;;;;;;43.88;24.60;;;;;;;;;;5064452;27;95591;-74
2022/03/01 20:13:20;;;;;;;39.60;23.98;;;;;;;;;;5063852;27;96268;-74
2022/03/01 20:15:47;;;;;;;56.08;26.90;;;;;;;;;;5060149;27;97818;-74
2022/03/01 20:18:14;;;;;;;43.33;24.35;;;;;;;;;;5065976;27;97088;-74
2022/03/01 20:20:40;;;;;;;46.13;24.63;;;;;;;;;;5064380;27;97976;-75
2022/03/01 20:23:10;;;;;;;45.22;24.98;;;;;;;;;;5062477;27;96280;-74
2022/03/01 20:25:37;;;;;;;44.28;24.77;;;;;;;;;;5064185;27;96867;-75
2022/03/01 20:28:04;;;;;;;42.67;24.48;;;;;;;;;;5063367;27;97595;-74
2022/03/01 20:30:31;;;;;;;42.72;24.63;;;;;;;;;;5064041;27;95460;-75
2022/03/01 20:32:57;;;;;;;44.38;24.42;;;;;;;;;;5062362;27;97347;-75
2022/03/01 20:35:24;;;;;;;48.20;24.88;;;;;;;;;;5064083;27;97808;-75
2022/03/01 20:37:51;;;;;;;46.67;25.48;;;;;;;;;;5069240;27;95400;-76
2022/03/01 20:40:18;;;;;;;51.22;26.10;;;;;;;;;;5066602;27;96372;-75
2022/03/01 20:42:46;;;;;;;46.80;25.88;;;;;;;;;;5064112;27;95666;-75
2022/03/01 20:45:14;;;;;;;43.92;25.85;;;;;;;;;;5063520;27;97230;-75
2022/03/01 20:47:41;;;;;;;39.85;24.92;;;;;;;;;;5063227;27;96545;-75
2022/03/01 20:50:09;;;;;;;42.92;26.67;;;;;;;;;;5063490;27;95421;-75
2022/03/01 20:52:36;;;;;;;45.28;26.15;;;;;;;;;;5063775;27;97129;-75
2022/03/01 20:55:02;;;;;;;43.65;26.05;;;;;;;;;;5062742;27;97726;-75
2022/03/01 20:57:29;;;;;;;49.50;25.08;;;;;;;;;;5063347;27;96081;-75
2022/03/01 20:59:56;;;;;;;49.00;26.50;;;;;;;;;;5045022;27;97152;-74
2022/03/01 21:02:22;;;;;;;51.00;25.60;;;;;;;;;;5066053;27;97941;-75
2022/03/01 21:04:49;;;;;;;44.58;26.35;;;;;;;;;;5063666;27;96237;-74
2022/03/01 21:07:15;;;;;;;46.40;27.73;;;;;;;;;;5062841;27;98029;-74
2022/03/01 21:09:43;;;;;;;44.85;26.60;;;;;;;;;;5010291;28;95438;-76
2022/03/01 21:12:09;;;;;;;48.55;26.58;;;;;;;;;;5030467;27;97068;-73
2022/03/01 21:14:36;;;;;;;45.53;27.20;;;;;;;;;;5031590;27;97980;-75
2022/03/01 21:17:02;;;;;;;47.35;27.23;;;;;;;;;;5050128;27;96487;-75
2022/03/01 21:19:29;;;;;;;44.53;27.48;;;;;;;;;;5050035;27;97340;-75
2022/03/01 21:21:55;;;;;;;52.58;28.52;;;;;;;;;;5050168;27;96601;-75
2022/03/01 21:24:22;;;;;;;47.83;28.42;;;;;;;;;;5053659;27;95568;-75
2022/03/01 21:26:49;;;;;;;48.45;29.15;;;;;;;;;;5045383;27;98084;-75
2022/03/01 21:29:15;;;;;;;54.83;26.92;;;;;;;;;;5025282;27;96055;-75
2022/03/01 21:31:42;;;;;;;45.00;26.45;;;;;;;;;;5030282;27;97558;-75
2022/03/01 21:34:09;;;;;;;67.53;28.52;;;;;;;;;;5047527;27;96754;-75
2022/03/01 21:36:35;;;;;;;53.80;28.20;;;;;;;;;;5050114;27;95776;-75
2022/03/01 21:39:03;;;;;;;48.58;26.88;;;;;;;;;;5049627;27;97618;-75
2022/03/01 21:41:29;;;;;;;46.42;27.25;;;;;;;;;;5051059;27;97575;-74
2022/03/01 21:43:56;;;;;;;47.95;27.35;;;;;;;;;;5049784;27;96054;-74
2022/03/01 21:46:22;;;;;;;52.75;28.67;;;;;;;;;;5035629;27;97404;-74
2022/03/01 21:48:49;;;;;;;48.58;28.25;;;;;;;;;;5050226;27;95822;-74
2022/03/01 21:51:16;;;;;;;51.88;29.85;;;;;;;;;;5050096;27;97809;-74
2022/03/01 21:53:43;;;;;;;65.70;30.48;;;;;;;;;;5050824;27;97837;-74
2022/03/01 21:56:12;;;;;;;60.50;30.98;;;;;;;;;;5050611;27;95252;-74
2022/03/01 21:58:39;;;;;;;54.80;29.27;;;;;;;;;;5050335;27;97409;-74
2022/03/01 22:01:06;;;;;;;54.03;28.95;;;;;;;;;;5030430;27;96996;-74
2022/03/01 22:03:33;;;;;;;53.47;27.58;;;;;;;;;;5029735;28;95678;-74
2022/03/01 22:05:59;;;;;;;50.30;27.98;;;;;;;;;;5029658;28;97468;-74
2022/03/01 22:08:26;;;;;;;58.58;30.88;;;;;;;;;;5033104;28;95942;-74
2022/03/01 22:10:53;;;;;;;55.85;30.48;;;;;;;;;;5029328;28;96925;-75
2022/03/01 22:13:22;;;;;;;54.15;29.77;;;;;;;;;;5029912;28;97799;-74
2022/03/01 22:15:49;;;;;;;55.03;31.50;;;;;;;;;;5029949;28;95404;-74
2022/03/01 22:18:16;;;;;;;53.28;30.20;;;;;;;;;;5029484;28;96974;-74
2022/03/01 22:20:42;;;;;;;46.85;27.65;;;;;;;;;;5027609;27;97782;-74
2022/03/01 22:23:09;;;;;;;53.55;30.67;;;;;;;;;;5030217;28;95392;-75
2022/03/01 22:25:39;;;;;;;53.72;29.05;;;;;;;;;;5029741;28;96601;-74
2022/03/01 22:28:06;;;;;;;51.80;30.10;;;;;;;;;;5032775;28;97627;-74
2022/03/01 22:30:33;;;;;;;55.10;30.23;;;;;;;;;;5028522;28;96472;-74
2022/03/01 22:33:00;;;;;;;51.35;27.75;;;;;;;;;;5029212;28;97927;-74
2022/03/01 22:35:31;;;;;;;54.15;29.60;;;;;;;;;;5030428;28;95340;-74
2022/03/01 22:37:57;;;;;;;49.38;28.92;;;;;;;;;;5029676;28;96049;-74
2022/03/01 22:40:24;;;;;;;52.97;29.15;;;;;;;;;;5028873;28;97765;-74
2022/03/01 22:42:50;;;;;;;55.40;28.85;;;;;;;;;;5029871;28;95771;-74
2022/03/01 22:45:16;;;;;;;50.97;28.02;;;;;;;;;;5029662;28;96253;-74
2022/03/01 22:47:44;;;;;;;47.95;27.77;;;;;;;;;;5028683;28;98152;-75
2022/03/01 22:50:12;;;;;;;47.35;26.92;;;;;;;;;;5015079;28;95134;-75
2022/03/01 22:52:39;;;;;;;53.95;28.17;;;;;;;;;;5030080;28;96930;-75
2022/03/01 22:55:08;;;;;;;48.25;27.60;;;;;;;;;;5032315;28;95974;-74
2022/03/01 22:57:35;;;;;;;46.92;28.90;;;;;;;;;;5041271;27;97179;-75
2022/03/01 23:00:04;;;;;;;50.30;27.83;;;;;;;;;;5048786;27;98174;-75
2022/03/01 23:02:31;;;;;;;54.40;27.90;;;;;;;;;;5049689;27;96045;-75
2022/03/01 23:04:57;;;;;;;48.75;28.58;;;;;;;;;;5049787;27;97275;-75
2022/03/01 23:07:27;;;;;;;49.88;28.15;;;;;;;;;;5049296;27;96549;-75
2022/03/01 23:09:57;;;;;;;49.75;29.23;;;;;;;;;;5049707;27;95470;-76
2022/03/01 23:12:25;;;;;;;50.17;29.35;;;;;;;;;;5052835;27;97036;-75
2022/03/01 23:14:53;;;;;;;57.17;29.10;;;;;;;;;;5049442;27;95488;-75
2022/03/01 23:17:19;;;;;;;49.65;29.77;;;;;;;;;;5049603;27;97040;-74
2022/03/01 23:19:46;;;;;;;52.17;28.40;;;;;;;;;;5049541;27;97987;-75
2022/03/01 23:22:13;;;;;;;78.50;29.85;;;;;;;;;;5049345;27;95745;-75
2022/03/01 23:24:39;;;;;;;48.30;28.10;;;;;;;;;;5049901;27;96508;-75
2022/03/01 23:27:06;;;;;;;57.05;27.65;;;;;;;;;;5048986;27;96789;-75
2022/03/01 23:29:33;;;;;;;58.47;28.05;;;;;;;;;;5048683;27;95875;-74
2022/03/01 23:31:59;;;;;;;46.03;27.10;;;;;;;;;;5048661;27;97581;-74
2022/03/01 23:34:26;;;;;;;47.88;28.20;;;;;;;;;;5052535;27;97835;-74
2022/03/01 23:36:52;;;;;;;56.55;28.13;;;;;;;;;;5048657;27;97073;-73
2022/03/01 23:39:19;;;;;;;47.08;27.70;;;;;;;;;;5048136;27;97903;-73
2022/03/01 23:41:50;;;;;;;47.67;28.83;;;;;;;;;;5043582;27;95351;-74
2022/03/01 23:44:17;;;;;;;49.53;28.63;;;;;;;;;;5029065;28;96707;-74
2022/03/01 23:46:43;;;;;;;52.22;28.83;;;;;;;;;;5030023;27;96589;-74
2022/03/01 23:49:12;;;;;;;49.63;27.92;;;;;;;;;;5048369;27;95392;-74
2022/03/01 23:51:39;;;;;;;44.35;27.08;;;;;;;;;;5048968;27;96334;-74
2022/03/01 23:54:05;;;;;;;48.20;28.77;;;;;;;;;;5048475;27;96701;-74
2022/03/01 23:56:32;;;;;;;56.60;28.50;;;;;;;;;;5051534;27;96583;-75
2022/03/01 23:58:59;;;;;;;59.50;28.10;;;;;;;;;;5047886;27;97626;-75
